createdAt,value
2022-12-11T00:06:28.923Z,5.93
2022-12-11T00:13:14.272Z,6.21
2022-12-11T00:20:02.750Z,6.07
2022-12-11T00:26:48.345Z,6.08
2022-12-11T00:33:33.722Z,6.07
2022-12-11T00:40:21.774Z,6.00
2022-12-11T00:47:08.536Z,6.09
2022-12-11T00:53:54.014Z,6.00
2022-12-11T01:00:44.156Z,6.01
2022-12-11T01:07:29.697Z,5.95
2022-12-11T01:14:15.764Z,5.96
2022-12-11T01:21:07.880Z,5.91
2022-12-11T01:27:54.692Z,5.94
2022-12-11T01:34:40.103Z,5.87
2022-12-11T01:41:28.951Z,5.95
2022-12-11T01:48:18.557Z,5.89
2022-12-11T01:55:04.826Z,5.99
2022-12-11T02:01:59.812Z,5.32
2022-12-11T02:08:45.218Z,5.97
2022-12-11T02:15:38.743Z,6.00
2022-12-11T02:22:41.545Z,6.00
2022-12-11T02:29:38.084Z,6.01
2022-12-11T02:36:28.321Z,6.04
2022-12-11T02:43:17.276Z,6.12
2022-12-11T02:50:12.797Z,6.13
2022-12-11T02:57:05.022Z,5.93
2022-12-11T03:03:53.262Z,6.03
2022-12-11T03:10:41.491Z,5.98
2022-12-11T03:17:33.167Z,6.13
2022-12-11T03:24:24.644Z,6.04
2022-12-11T03:31:17.097Z,6.09
2022-12-11T03:38:10.092Z,5.68
2022-12-11T03:44:58.208Z,5.63
2022-12-11T04:05:12.584Z,6.12
2022-12-11T04:11:58.240Z,6.11
2022-12-11T04:18:56.151Z,6.13
2022-12-11T04:25:44.279Z,6.06
2022-12-11T04:32:29.725Z,6.08
2022-12-11T04:39:15.222Z,6.02
2022-12-11T04:46:12.449Z,6.03
2022-12-11T04:52:58.774Z,5.47
2022-12-11T04:59:44.245Z,6.08
2022-12-11T05:06:32.217Z,5.93
2022-12-11T05:13:17.599Z,5.99
2022-12-11T05:20:05.523Z,6.10
2022-12-11T05:26:53.542Z,6.14
2022-12-11T05:33:38.980Z,6.16
2022-12-11T05:40:24.408Z,6.09
2022-12-11T05:47:12.452Z,5.81
2022-12-11T05:54:00.622Z,6.05
2022-12-11T06:00:47.276Z,5.79
2022-12-11T06:07:35.301Z,6.15
2022-12-11T06:14:20.749Z,6.09
2022-12-11T06:21:13.373Z,6.12
2022-12-11T06:28:01.788Z,6.31
2022-12-11T06:34:47.224Z,6.36
2022-12-11T06:41:32.623Z,6.43
2022-12-11T06:48:21.214Z,6.24
2022-12-11T06:55:07.282Z,6.33
2022-12-11T07:01:52.818Z,6.31
2022-12-11T07:08:41.036Z,6.32
2022-12-11T07:15:26.500Z,6.14
2022-12-11T07:22:12.161Z,6.21
2022-12-11T07:29:02.032Z,6.21
2022-12-11T07:35:48.575Z,6.21
2022-12-11T07:42:33.963Z,6.09
2022-12-11T07:49:21.962Z,5.98
2022-12-11T07:56:08.155Z,5.88
2022-12-11T08:02:53.615Z,6.01
2022-12-11T08:09:42.022Z,5.88
2022-12-11T08:16:27.676Z,5.84
2022-12-11T08:23:13.090Z,5.73
2022-12-11T08:30:01.211Z,5.52
2022-12-11T08:36:46.817Z,5.64
2022-12-11T08:43:32.279Z,5.62
2022-12-11T08:50:20.512Z,5.59
2022-12-11T08:57:05.949Z,5.83
2022-12-11T09:03:52.185Z,5.96
2022-12-11T09:10:40.263Z,6.07
2022-12-11T09:17:25.624Z,6.00
2022-12-11T09:24:13.921Z,5.98
2022-12-11T09:31:02.187Z,5.99
2022-12-11T09:37:47.652Z,5.89
2022-12-11T09:44:45.913Z,5.83
2022-12-11T09:51:42.328Z,5.78
2022-12-11T09:58:39.031Z,5.71
2022-12-11T10:05:34.442Z,5.86
2022-12-11T10:12:35.855Z,5.71
2022-12-11T10:19:25.785Z,5.45
2022-12-11T10:26:24.200Z,5.60
2022-12-11T10:33:23.504Z,5.67
2022-12-11T10:40:11.763Z,5.75
2022-12-11T10:47:09.679Z,5.81
2022-12-11T10:54:07.143Z,5.81
2022-12-11T11:01:07.957Z,5.89
2022-12-11T11:07:53.548Z,5.99
2022-12-11T11:14:41.690Z,6.13
2022-12-11T11:21:30.553Z,6.26
2022-12-11T11:28:23.972Z,6.40
2022-12-11T11:35:22.374Z,6.54
2022-12-11T11:42:18.209Z,6.61
2022-12-11T11:49:13.447Z,6.72
2022-12-11T11:56:16.063Z,6.92
2022-12-11T12:03:05.127Z,6.94
2022-12-11T12:10:01.147Z,7.03
2022-12-11T12:17:04.988Z,7.04
2022-12-11T12:24:17.009Z,7.08
2022-12-11T12:31:16.085Z,7.00
2022-12-11T12:38:14.376Z,6.95
2022-12-11T12:45:10.496Z,6.93
2022-12-11T12:51:57.195Z,6.97
2022-12-11T12:58:50.186Z,6.97
2022-12-11T13:05:38.050Z,7.07
2022-12-11T13:12:43.183Z,7.04
2022-12-11T13:19:42.249Z,7.04
2022-12-11T13:26:35.479Z,7.13
2022-12-11T13:33:23.030Z,7.09
2022-12-11T13:40:23.972Z,7.12
2022-12-11T13:47:16.218Z,7.18
2022-12-11T13:54:20.401Z,7.21
2022-12-11T14:01:13.574Z,7.15
2022-12-11T14:08:02.544Z,7.30
2022-12-11T14:14:53.969Z,7.20
2022-12-11T14:21:42.145Z,7.26
2022-12-11T14:28:31.243Z,7.30
2022-12-11T14:35:27.779Z,7.31
2022-12-11T14:42:22.297Z,7.33
2022-12-11T14:49:15.002Z,7.35
2022-12-11T14:56:05.737Z,7.39
2022-12-11T15:03:02.601Z,7.34
2022-12-11T15:09:50.384Z,7.46
2022-12-11T15:16:41.824Z,7.37
2022-12-11T15:23:30.831Z,7.27
2022-12-11T15:30:30.618Z,7.42
2022-12-11T15:37:27.097Z,7.43
2022-12-11T15:44:24.233Z,7.39
2022-12-11T15:51:09.674Z,7.74
2022-12-11T15:57:58.254Z,6.80
2022-12-11T16:04:46.843Z,7.04
2022-12-11T16:11:32.321Z,7.34
2022-12-11T16:18:20.429Z,7.36
2022-12-11T16:25:10.590Z,7.31
2022-12-11T16:31:56.240Z,7.33
2022-12-11T16:38:41.680Z,7.34
2022-12-11T16:45:30.166Z,7.04
2022-12-11T16:52:21.808Z,7.31
2022-12-11T16:59:08.616Z,7.37
2022-12-11T17:05:56.623Z,7.20
2022-12-11T17:12:43.400Z,7.34
2022-12-11T17:19:30.061Z,7.29
2022-12-11T17:26:18.698Z,7.31
2022-12-11T17:33:04.665Z,7.34
2022-12-11T17:39:50.250Z,7.31
2022-12-11T17:46:38.288Z,6.98
2022-12-11T17:53:26.361Z,6.78
2022-12-11T18:00:13.996Z,6.80
2022-12-11T18:07:03.708Z,6.78
2022-12-11T18:13:50.322Z,6.99
2022-12-11T18:20:37.399Z,7.16
2022-12-11T18:27:25.571Z,7.15
2022-12-11T18:34:11.190Z,7.16
2022-12-11T18:40:56.622Z,7.27
2022-12-11T18:47:44.638Z,7.26
2022-12-11T18:54:30.077Z,7.25
2022-12-11T19:01:20.471Z,7.33
2022-12-11T19:08:09.001Z,7.28
2022-12-11T19:14:54.603Z,7.36
2022-12-11T19:21:41.476Z,7.35
2022-12-11T19:28:29.398Z,7.71
2022-12-11T19:35:16.732Z,7.46
2022-12-11T19:42:02.386Z,7.33
2022-12-11T19:48:53.508Z,7.27
2022-12-11T19:55:39.116Z,7.31
2022-12-11T20:02:24.857Z,7.35
2022-12-11T20:09:14.593Z,7.32
2022-12-11T20:16:00.115Z,7.28
2022-12-11T20:22:46.824Z,7.36
2022-12-11T20:29:34.864Z,7.24
2022-12-11T20:36:22.218Z,7.24
2022-12-11T20:43:07.623Z,7.26
2022-12-11T20:49:55.977Z,7.22
2022-12-11T20:56:41.941Z,7.17
2022-12-11T21:03:27.442Z,7.22
2022-12-11T21:10:16.882Z,7.21
2022-12-11T21:17:04.517Z,7.19
2022-12-11T21:23:50.209Z,7.30
2022-12-11T21:30:41.289Z,7.29
2022-12-11T21:37:29.153Z,7.39
2022-12-11T21:51:27.703Z,6.99
2022-12-11T21:58:16.435Z,7.49
2022-12-11T22:05:04.955Z,7.33
2022-12-11T22:11:58.066Z,7.35
2022-12-11T22:18:44.194Z,7.44
2022-12-11T22:25:29.606Z,7.40
2022-12-11T22:32:17.930Z,7.15
2022-12-11T22:39:04.317Z,7.10
2022-12-11T22:45:50.631Z,7.44
2022-12-11T22:52:39.495Z,7.04
2022-12-11T22:59:24.964Z,6.89
2022-12-11T23:06:12.174Z,6.87
2022-12-11T23:13:00.229Z,6.69
2022-12-11T23:19:46.847Z,6.84
2022-12-11T23:26:33.123Z,6.91
2022-12-11T23:33:21.767Z,6.85
2022-12-11T23:40:11.435Z,6.80
2022-12-11T23:46:56.851Z,6.98
2022-12-11T23:53:45.283Z,7.11
